Time;durP1;ratioP1;P1;durP2;ratioP2;P2;SDS_P1;SDS_P2;PMS_P1;PMS_P2;Temp;Humidity;BMP_temperature;BMP_pressure;BME280_temperature;BME280_humidity;BME280_pressure;Samples;Min_cycle;Max_cycle;Signal;HPM_P1;HPM_P2
2021/03/13 00:08:37;842775.00;2.81;1455.83;22510.00;0.08;39.62;;;;;9.90;1.00;;;;;;2282255;60;1423;-89
2021/03/13 00:23:44;1517182.00;5.06;2675.49;52191.00;0.17;90.98;;;;;11.50;1.00;;;;;;2282188;61;1970;-91
2021/03/13 00:33:48;1626550.00;5.42;2883.59;76565.00;0.26;133.10;;;;;11.00;1.00;;;;;;2286068;60;1427;-91
2021/03/13 00:36:24;533093.00;1.78;918.82;78525.00;0.26;136.49;;;;;11.00;1.00;;;;;;2284871;60;944;-90
2021/03/13 00:44:00;1434828.00;4.78;2521.08;87255.00;0.29;151.57;;;;;11.40;1.00;;;;;;2270858;61;1962;-89
2021/03/13 00:46:31;755415.00;2.52;1303.47;94904.00;0.32;164.77;;;;;11.70;1.00;;;;;;2264096;61;1017;-91
2021/03/13 00:51:31;1410937.00;4.70;2476.62;0.00;0.00;0.62;;;;;11.50;1.00;;;;;;2282798;60;1330;-91
2021/03/13 00:53:58;421452.00;1.40;726.69;0.00;0.00;0.62;;;;;11.40;1.00;;;;;;2271898;61;1391;-90
2021/03/13 00:56:24;514457.00;1.71;886.72;25446.00;0.08;44.70;;;;;11.40;1.00;;;;;;2272206;61;985;-90
2021/03/13 00:58:51;624309.00;2.08;1076.21;0.00;0.00;0.62;;;;;11.20;1.00;;;;;;2268015;61;942;-90
2021/03/13 01:01:22;590715.00;1.97;1018.19;0.00;0.00;0.62;;;;;11.20;1.00;;;;;;2256038;61;962;-90
2021/03/13 01:03:50;488858.00;1.63;842.64;31751.00;0.11;55.61;;;;;11.20;1.00;;;;;;2251939;61;2012;-91
2021/03/13 01:06:18;679337.00;2.26;1171.42;113000.00;0.38;196.01;;;;;11.20;1.00;;;;;;2247933;61;995;-90
2021/03/13 01:24:05;1149001.00;3.83;1998.28;0.00;0.00;0.62;;;;;9.80;1.00;;;;;;2282289;61;1903;-89
2021/03/13 02:05:25;1974076.00;6.58;3571.23;157434.00;0.52;272.62;;;;;10.00;1.00;;;;;;2286371;60;1177;-91
2021/03/13 02:08:02;496920.00;1.66;856.52;82649.00;0.28;143.61;;;;;10.10;1.00;;;;;;2275551;61;1043;-89
2021/03/13 02:10:44;272377.00;0.91;470.43;0.00;0.00;0.62;;;;;10.50;1.00;;;;;;2275865;61;934;-92
2021/03/13 02:13:22;169055.00;0.56;292.64;0.00;0.00;0.62;;;;;10.60;1.00;;;;;;2279966;61;1329;-90
2021/03/13 02:18:34;1619844.00;5.40;2870.72;62344.00;0.21;108.53;;;;;10.60;1.00;;;;;;2282141;61;1195;-90
2021/03/13 02:24:00;2544152.00;8.48;4808.09;92193.00;0.31;160.09;;;;;10.50;1.00;;;;;;2274218;61;1962;-90
2021/03/13 02:26:42;351874.00;1.17;607.08;90489.00;0.30;157.15;;;;;10.50;1.00;;;;;;2263739;61;998;-90
2021/03/13 02:29:40;605336.00;2.02;1043.43;0.00;0.00;0.62;;;;;10.50;1.00;;;;;;2257246;61;1036;-91
2021/03/13 02:44:54;1815814.00;6.05;3252.73;0.00;0.00;0.62;;;;;10.10;1.00;;;;;;2278480;61;1198;-90
2021/03/13 03:05:39;;;;;;;;;;;;;;;;;;;;;
2021/03/13 03:08:13;189041.00;0.63;327.06;0.00;0.00;0.62;;;;;10.50;1.00;;;;;;2280466;61;978;-90
2021/03/13 03:10:46;432174.00;1.44;745.12;0.00;0.00;0.62;;;;;10.50;1.00;;;;;;2280221;61;1779;-90
2021/03/13 03:13:14;351217.00;1.17;605.95;30653.00;0.10;53.71;;;;;10.50;1.00;;;;;;2280306;61;1529;-90
2021/03/13 03:23:20;801215.00;2.67;1383.24;0.00;0.00;0.62;;;;;10.30;1.00;;;;;;2281645;60;1972;-91
2021/03/13 03:25:51;427194.00;1.42;736.56;0.00;0.00;0.62;;;;;10.50;1.00;;;;;;2267683;61;964;-91
2021/03/13 03:28:21;266203.00;0.89;459.82;55722.00;0.19;97.08;;;;;10.70;1.00;;;;;;2259546;61;929;-90
2021/03/13 03:30:53;289861.00;0.97;500.49;0.00;0.00;0.62;;;;;10.90;1.00;;;;;;2259529;61;1084;-92
2021/03/13 03:33:21;352368.00;1.17;607.93;64014.00;0.21;111.42;;;;;10.90;1.00;;;;;;2255613;61;1325;-91
2021/03/13 03:38:24;1217250.00;4.06;2121.44;46810.00;0.16;81.67;;;;;10.30;1.00;;;;;;2281894;60;1433;-90
2021/03/13 03:40:57;428462.00;1.43;738.74;19372.00;0.06;34.18;;;;;10.20;1.00;;;;;;2280417;60;1192;-90
2021/03/13 03:43:29;336528.00;1.12;580.71;0.00;0.00;0.62;;;;;9.90;1.00;;;;;;2280464;60;2016;-90
2021/03/13 03:46:00;377260.00;1.26;650.72;29797.00;0.10;52.23;;;;;10.10;1.00;;;;;;2281060;60;942;-89
2021/03/13 03:50:55;378844.00;1.26;653.44;0.00;0.00;0.62;;;;;10.60;1.00;;;;;;2283071;60;1450;-90
2021/03/13 03:53:28;379327.00;1.26;654.27;20408.00;0.07;35.98;;;;;10.40;1.00;;;;;;2280982;60;1313;-91
2021/03/13 03:55:58;389974.00;1.30;672.57;73464.00;0.24;127.75;;;;;10.10;1.00;;;;;;2281015;60;941;-88
2021/03/13 03:58:30;331829.00;1.11;572.63;21176.00;0.07;37.31;;;;;9.80;1.00;;;;;;2281011;60;1115;-88
2021/03/13 04:00:59;123046896.00;410.16;75473864.00;32370.00;0.11;56.69;;;;;9.60;1.00;;;;;;2280927;60;1749;-90
2021/03/13 04:03:26;675529.00;2.25;1164.83;61758.00;0.21;107.52;;;;;9.80;1.00;;;;;;2280480;60;2021;-89
2021/03/13 04:05:55;99880.00;0.33;173.36;0.00;0.00;0.62;;;;;10.10;1.00;;;;;;2277192;60;934;-91
2021/03/13 04:08:26;275821.00;0.92;476.35;0.00;0.00;0.62;;;;;10.40;1.00;;;;;;2280994;60;1005;-91
2021/03/13 04:10:56;251675.00;0.84;434.83;0.00;0.00;0.62;;;;;10.10;1.00;;;;;;2280899;60;1525;-90
2021/03/13 04:15:54;387343.00;1.29;668.05;0.00;0.00;0.62;;;;;9.90;1.00;;;;;;2282522;61;1418;-90
2021/03/13 04:18:21;285709.00;0.95;493.35;0.00;0.00;0.62;;;;;10.00;1.00;;;;;;2280902;61;1090;-91
2021/03/13 04:20:50;267545.00;0.89;462.12;0.00;0.00;0.62;;;;;10.10;1.00;;;;;;2280960;61;1001;-90
2021/03/13 04:23:21;119618680.00;398.73;69334208.00;114051.00;0.38;197.82;;;;;10.00;1.00;;;;;;2280669;61;1997;-90
2021/03/13 04:25:50;121014992.00;403.38;71792968.00;0.00;0.00;0.62;;;;;9.90;1.00;;;;;;2268328;61;990;-90
2021/03/13 04:28:18;92748.00;0.31;161.05;0.00;0.00;0.62;;;;;10.10;1.00;;;;;;2268400;61;1041;-90
2021/03/13 04:30:45;125992.00;0.42;218.42;0.00;0.00;0.62;;;;;10.40;1.00;;;;;;2268322;61;989;-90
2021/03/13 04:33:13;228742.00;0.76;395.38;0.00;0.00;0.62;;;;;10.30;1.00;;;;;;2268094;61;1594;-89
2021/03/13 04:35:40;186139.00;0.62;322.06;0.00;0.00;0.62;;;;;10.20;1.00;;;;;;2261613;61;1051;-89
2021/03/13 04:38:09;72653.00;0.24;126.34;0.00;0.00;0.62;;;;;10.50;1.00;;;;;;2260179;61;1025;-89
2021/03/13 04:40:36;132704.00;0.44;229.99;0.00;0.00;0.62;;;;;10.60;1.00;;;;;;2260293;61;949;-89
2021/03/13 04:43:04;266271.00;0.89;459.93;0.00;0.00;0.62;;;;;11.00;1.00;;;;;;2262217;61;2004;-90
2021/03/13 04:45:33;175649.00;0.59;304.00;0.00;0.00;0.62;;;;;11.00;1.00;;;;;;2272426;61;1077;-90
2021/03/13 04:48:01;463415.00;1.54;798.86;0.00;0.00;0.62;;;;;10.90;1.00;;;;;;2265680;61;1006;-88
2021/03/13 04:50:28;306220.00;1.02;528.61;59661.00;0.20;103.89;;;;;11.10;1.00;;;;;;2264208;61;1075;-87
2021/03/13 04:52:54;252662.00;0.84;436.53;0.00;0.00;0.62;;;;;11.20;1.00;;;;;;2264232;61;1317;-89
2021/03/13 04:55:21;254364.00;0.85;439.46;0.00;0.00;0.62;;;;;11.30;1.00;;;;;;2264551;61;1036;-87
2021/03/13 04:57:49;98562.00;0.33;171.09;0.00;0.00;0.62;;;;;11.10;1.00;;;;;;2261632;61;1070;-87
2021/03/13 05:00:17;170421.00;0.57;294.99;0.00;0.00;0.62;;;;;11.00;1.00;;;;;;2268316;61;1013;-87
2021/03/13 05:02:45;153808.00;0.51;266.37;25571.00;0.09;44.92;;;;;11.20;1.00;;;;;;2264829;61;2000;-87
2021/03/13 05:05:12;257590.00;0.86;445.00;26505.00;0.09;46.53;;;;;11.10;1.00;;;;;;2261522;61;1036;-88
2021/03/13 05:07:40;153927.00;0.51;266.57;0.00;0.00;0.62;;;;;11.20;1.00;;;;;;2263078;61;951;-90
2021/03/13 05:10:10;61782.00;0.21;107.56;0.00;0.00;0.62;;;;;10.70;1.00;;;;;;2276037;61;980;-90
2021/03/13 05:12:37;148062.00;0.49;256.47;0.00;0.00;0.62;;;;;10.90;1.00;;;;;;2272039;61;1448;-89
2021/03/13 05:15:05;207376.00;0.69;358.62;0.00;0.00;0.62;;;;;10.80;1.00;;;;;;2271872;61;1020;-89
2021/03/13 05:17:33;344289.00;1.15;594.05;0.00;0.00;0.62;;;;;10.90;1.00;;;;;;2265450;61;1050;-89
2021/03/13 05:20:00;117669.00;0.39;204.06;0.00;0.00;0.62;;;;;10.90;1.00;;;;;;2272127;61;1025;-89
2021/03/13 05:22:28;101487.00;0.34;176.14;0.00;0.00;0.62;;;;;10.70;1.00;;;;;;2272032;61;1998;-88
2021/03/13 05:24:55;288340.00;0.96;497.88;0.00;0.00;0.62;;;;;10.80;1.00;;;;;;2263936;61;1012;-88
2021/03/13 05:27:21;346724.00;1.16;598.23;0.00;0.00;0.62;;;;;10.70;1.00;;;;;;2264683;61;957;-89
2021/03/13 05:29:51;202404.00;0.67;350.06;0.00;0.00;0.62;;;;;10.50;1.00;;;;;;2258682;61;947;-90
2021/03/13 05:32:20;413178.00;1.38;712.46;0.00;0.00;0.62;;;;;10.60;1.00;;;;;;2268643;61;1288;-90
2021/03/13 05:34:48;286764.00;0.96;495.17;62374.00;0.21;108.58;;;;;11.20;1.00;;;;;;2264012;61;975;-88
2021/03/13 05:37:15;116336.00;0.39;201.76;0.00;0.00;0.62;;;;;10.90;1.00;;;;;;2264057;61;996;-89
2021/03/13 05:39:42;269123.00;0.90;464.84;26280.00;0.09;46.14;;;;;11.10;1.00;;;;;;2259920;61;1026;-89
2021/03/13 05:42:10;378536.00;1.26;652.91;36503.00;0.12;63.84;;;;;11.10;1.00;;;;;;2256356;61;2002;-89
2021/03/13 05:44:38;110686.00;0.37;192.01;0.00;0.00;0.62;;;;;11.10;1.00;;;;;;2255870;61;1076;-89
2021/03/13 05:47:08;79132.00;0.26;137.54;0.00;0.00;0.62;;;;;11.10;1.00;;;;;;2255902;61;1084;-90
2021/03/13 05:49:41;97011.00;0.32;168.41;0.00;0.00;0.62;;;;;10.70;1.00;;;;;;2255972;61;1022;-89
2021/03/13 05:52:09;532928.00;1.78;918.54;50358.00;0.17;87.81;;;;;10.50;1.00;;;;;;2255936;61;1627;-90
2021/03/13 05:54:36;207507.00;0.69;358.84;0.00;0.00;0.62;;;;;10.30;1.00;;;;;;2255786;61;1013;-89
2021/03/13 05:57:08;299587.00;1.00;517.21;26912.00;0.09;47.24;;;;;10.20;1.00;;;;;;2247733;61;1031;-89
2021/03/13 05:59:36;81555.00;0.27;141.72;0.00;0.00;0.62;;;;;10.20;1.00;;;;;;2244895;61;948;-90
2021/03/13 06:02:04;382944.00;1.28;660.49;746.00;0.00;1.91;;;;;10.40;1.00;;;;;;2249906;61;1307;-89
2021/03/13 06:04:31;374831.00;1.25;646.54;0.00;0.00;0.62;;;;;10.20;1.00;;;;;;2255860;61;1010;-88
2021/03/13 06:07:00;368334.00;1.23;635.37;28850.00;0.10;50.59;;;;;10.30;1.00;;;;;;2255801;61;1787;-87
2021/03/13 06:09:26;272993.00;0.91;471.49;0.00;0.00;0.62;;;;;10.30;1.00;;;;;;2255885;61;1018;-86
2021/03/13 06:11:54;146268.00;0.49;253.38;0.00;0.00;0.62;;;;;10.70;1.00;;;;;;2255824;61;1300;-87
2021/03/13 06:14:20;165903.00;0.55;287.21;0.00;0.00;0.62;;;;;11.10;1.00;;;;;;2258863;61;1104;-87
2021/03/13 06:16:47;83341.00;0.28;144.81;0.00;0.00;0.62;;;;;11.00;1.00;;;;;;2269176;61;1074;-87
2021/03/13 06:19:16;256537.00;0.86;443.19;0.00;0.00;0.62;;;;;10.70;1.00;;;;;;2276375;61;1511;-87
2021/03/13 06:21:43;127774.00;0.43;221.49;0.00;0.00;0.62;;;;;10.30;1.00;;;;;;2276467;61;1113;-88
2021/03/13 06:24:18;401745.00;1.34;692.80;0.00;0.00;0.62;;;;;10.50;1.00;;;;;;2276419;61;1929;-87
2021/03/13 06:26:53;172808.00;0.58;299.10;0.00;0.00;0.62;;;;;10.40;1.00;;;;;;2276475;61;1213;-88
2021/03/13 06:29:20;96486.00;0.32;167.51;0.00;0.00;0.62;;;;;10.30;1.00;;;;;;2276399;61;1141;-87
2021/03/13 06:32:05;256719.00;0.86;443.51;45007.00;0.15;78.55;;;;;10.40;1.00;;;;;;2276348;61;1358;-88
2021/03/13 06:34:31;223019.00;0.74;385.54;0.00;0.00;0.62;;;;;10.60;1.00;;;;;;2276362;61;1134;-88
2021/03/13 06:37:23;787377.00;2.62;1359.12;232741.00;0.78;402.26;;;;;10.70;1.00;;;;;;2276356;61;1602;-88
2021/03/13 06:39:50;142574.00;0.48;247.01;0.00;0.00;0.62;;;;;10.80;1.00;;;;;;2276392;61;1027;-87
2021/03/13 06:42:22;304962.00;1.02;526.45;30799.00;0.10;53.97;;;;;10.80;1.00;;;;;;2276268;61;1994;-87
2021/03/13 06:44:56;198963.00;0.66;344.14;0.00;0.00;0.62;;;;;10.90;1.00;;;;;;2276119;61;1132;-88
2021/03/13 06:47:33;123617.00;0.41;214.32;0.00;0.00;0.62;;;;;10.80;1.00;;;;;;2276282;61;1126;-88
2021/03/13 06:50:14;228359.00;0.76;394.73;0.00;0.00;0.62;;;;;10.70;1.00;;;;;;2276030;61;1176;-88
2021/03/13 06:52:42;336147.00;1.12;580.05;79663.00;0.27;138.46;;;;;10.70;1.00;;;;;;2276316;61;1453;-89
2021/03/13 06:55:16;114038.00;0.38;197.80;0.00;0.00;0.62;;;;;10.80;1.00;;;;;;2276375;61;1106;-87
2021/03/13 06:57:45;97947.00;0.33;170.03;0.00;0.00;0.62;;;;;10.90;1.00;;;;;;2276276;61;1086;-87
2021/03/13 07:00:26;101178.00;0.34;175.61;0.00;0.00;0.62;;;;;11.00;1.00;;;;;;2276355;61;877;-88
2021/03/13 07:02:52;102461.00;0.34;177.82;0.00;0.00;0.62;;;;;11.00;1.00;;;;;;2275726;61;1996;-88
2021/03/13 07:05:28;153295.00;0.51;265.49;0.00;0.00;0.62;;;;;11.40;1.00;;;;;;2276341;61;1168;-88
2021/03/13 07:07:55;80594.00;0.27;140.06;0.00;0.00;0.62;;;;;11.40;1.00;;;;;;2276268;61;1053;-88
2021/03/13 07:10:27;257294.00;0.86;444.50;0.00;0.00;0.62;;;;;11.50;1.00;;;;;;2276175;61;1572;-88
2021/03/13 07:12:55;216215.00;0.72;373.83;3723.00;0.01;7.07;;;;;11.10;1.00;;;;;;2276269;61;1486;-87
2021/03/13 07:15:23;143253.00;0.48;248.18;0.00;0.00;0.62;;;;;10.60;1.00;;;;;;2279646;61;1155;-87
2021/03/13 07:17:51;77400.00;0.26;134.55;0.00;0.00;0.62;;;;;10.80;1.00;;;;;;2280096;61;1161;-87
2021/03/13 07:20:19;229919.00;0.77;397.41;0.00;0.00;0.62;;;;;10.90;1.00;;;;;;2280129;61;1702;-87
2021/03/13 07:22:50;171843.00;0.57;297.44;0.00;0.00;0.62;;;;;11.00;1.00;;;;;;2279642;61;2013;-89
2021/03/13 07:25:20;1460663.00;4.87;2569.32;178485.00;0.59;308.88;;;;;11.50;1.00;;;;;;2280239;61;894;-89
2021/03/13 07:27:52;953820.00;3.18;1650.85;51627.00;0.17;90.00;;;;;11.60;1.00;;;;;;2273071;61;1011;-87
2021/03/13 07:30:21;829703.00;2.77;1432.98;39351.00;0.13;68.77;;;;;11.80;1.00;;;;;;2280272;61;1765;-87
2021/03/13 07:32:55;1041494.00;3.47;1806.10;47071.00;0.16;82.12;;;;;11.50;1.00;;;;;;2280286;61;1328;-87
2021/03/13 07:35:25;762960.00;2.54;1316.60;9134.00;0.03;16.45;;;;;11.60;1.00;;;;;;2280229;61;1705;-88
2021/03/13 07:37:55;1200906.00;4.00;2091.86;68734.00;0.23;119.57;;;;;11.60;1.00;;;;;;2280310;61;1082;-88
2021/03/13 07:40:23;837054.00;2.79;1445.82;54824.00;0.18;95.53;;;;;11.40;1.00;;;;;;2280362;61;1142;-87
2021/03/13 07:42:50;1416558.00;4.72;2487.07;143568.00;0.48;248.72;;;;;11.20;1.00;;;;;;2280157;61;2012;-87
2021/03/13 07:45:19;1082088.00;3.61;1878.42;87652.00;0.29;152.25;;;;;11.20;1.00;;;;;;2280277;61;1130;-87
2021/03/13 07:47:46;1009476.00;3.36;1749.26;34328.00;0.11;60.07;;;;;11.40;1.00;;;;;;2280154;61;1783;-87
2021/03/13 07:50:14;793872.00;2.65;1370.44;29426.00;0.10;51.59;;;;;11.30;1.00;;;;;;2280188;61;1122;-88
2021/03/13 07:52:43;643817.00;2.15;1109.94;3757.00;0.01;7.13;;;;;11.30;1.00;;;;;;2280230;61;1727;-88
2021/03/13 07:55:12;1138240.00;3.79;1978.95;121577.00;0.41;210.80;;;;;11.80;1.00;;;;;;2278375;61;1074;-86
2021/03/13 07:57:41;489439.00;1.63;843.64;0.00;0.00;0.62;;;;;11.50;1.00;;;;;;2267482;61;1264;-88
2021/03/13 08:00:10;391304.00;1.30;674.86;0.00;0.00;0.62;;;;;11.50;1.00;;;;;;2280093;61;1120;-87
2021/03/13 08:02:44;561807.00;1.87;968.32;46900.00;0.16;81.82;;;;;11.60;1.00;;;;;;2279585;61;2005;-87
2021/03/13 08:05:14;463533.00;1.55;799.06;67308.00;0.22;117.11;;;;;11.40;1.00;;;;;;2280162;61;1912;-87
2021/03/13 08:07:58;232019.00;0.77;401.02;0.00;0.00;0.62;;;;;11.70;1.00;;;;;;2280115;61;1125;-87
2021/03/13 08:10:44;367316.00;1.22;633.62;92099.00;0.31;159.93;;;;;12.00;1.00;;;;;;2280134;61;1126;-87
2021/03/13 08:13:11;456815.00;1.52;787.51;0.00;0.00;0.62;;;;;12.40;1.00;;;;;;2280158;61;1327;-86
2021/03/13 08:15:47;309456.00;1.03;534.17;0.00;0.00;0.62;;;;;12.40;1.00;;;;;;2280118;61;1605;-87
2021/03/13 08:18:39;520157.00;1.73;896.54;81563.00;0.27;141.74;;;;;12.10;1.00;;;;;;2280231;61;1774;-87
2021/03/13 08:21:42;517263.00;1.72;891.55;106877.00;0.36;185.44;;;;;11.90;1.00;;;;;;2279992;61;984;-87
2021/03/13 08:24:08;328252.00;1.09;566.48;0.00;0.00;0.62;;;;;12.20;1.00;;;;;;2275317;61;2038;-86
2021/03/13 08:27:12;457775.00;1.53;789.16;79473.00;0.26;138.13;;;;;12.70;1.00;;;;;;2275884;61;1151;-85
2021/03/13 08:29:56;114731.00;0.38;198.99;0.00;0.00;0.62;;;;;13.20;1.00;;;;;;2277312;61;1135;-86
2021/03/13 08:32:56;320291.00;1.07;552.80;0.00;0.00;0.62;;;;;13.30;1.00;;;;;;2279936;61;1494;-86
2021/03/13 08:35:31;278152.00;0.93;480.36;0.00;0.00;0.62;;;;;13.00;1.00;;;;;;2263373;61;1269;-86
2021/03/13 08:37:59;287847.00;0.96;497.03;0.00;0.00;0.62;;;;;13.10;1.00;;;;;;2263453;61;1609;-86
2021/03/13 08:40:28;296712.00;0.99;512.27;0.00;0.00;0.62;;;;;13.10;1.00;;;;;;2260145;61;1173;-85
2021/03/13 08:45:34;41835.00;0.14;73.06;0.00;0.00;0.62;;;;;13.70;1.00;;;;;;2282684;60;1330;-83
2021/03/13 08:48:01;583166.00;1.94;1005.16;100154.00;0.33;173.84;;;;;13.20;1.00;;;;;;2274949;61;1068;-83
2021/03/13 08:50:53;357642.00;1.19;617.00;81058.00;0.27;140.86;;;;;13.10;1.00;;;;;;2274323;61;1270;-83
2021/03/13 08:53:34;443075.00;1.48;763.87;98504.00;0.33;170.99;;;;;13.20;1.00;;;;;;2273453;61;1426;-85
2021/03/13 08:56:01;131740896.00;439.14;92647256.00;0.00;0.00;0.62;;;;;12.50;1.00;;;;;;2275913;61;1128;-86
2021/03/13 08:58:42;425398.00;1.42;733.47;0.00;0.00;0.62;;;;;12.40;1.00;;;;;;2271337;61;1162;-85
2021/03/13 09:01:16;488463.00;1.63;841.96;85379.00;0.28;148.33;;;;;12.40;1.00;;;;;;2264014;61;1188;-85
2021/03/13 09:03:50;1391260.00;4.64;2440.12;118618.00;0.40;205.70;;;;;12.70;1.00;;;;;;2263914;61;1935;-85
2021/03/13 09:06:19;751654.00;2.51;1296.93;26876.00;0.09;47.18;;;;;12.60;1.00;;;;;;2264576;61;1101;-85
2021/03/13 09:08:47;642595.00;2.14;1107.83;28758.00;0.10;50.43;;;;;12.80;1.00;;;;;;2263729;61;1184;-85
2021/03/13 09:11:14;337017.00;1.12;581.55;0.00;0.00;0.62;;;;;12.90;1.00;;;;;;2273173;61;1115;-85
2021/03/13 09:13:40;452866.00;1.51;780.71;82460.00;0.27;143.29;;;;;12.80;1.00;;;;;;2278463;61;1355;-85
2021/03/13 09:16:19;513934.00;1.71;885.82;84386.00;0.28;146.61;;;;;12.60;1.00;;;;;;2271924;61;1258;-85
2021/03/13 09:18:56;428734.00;1.43;739.21;0.00;0.00;0.62;;;;;12.70;1.00;;;;;;2281963;61;1197;-85
2021/03/13 09:21:57;266981.00;0.89;461.15;0.00;0.00;0.62;;;;;12.40;1.00;;;;;;2275250;61;1121;-85
2021/03/13 09:24:27;11308.00;0.04;20.22;0.00;0.00;0.62;;;;;12.20;1.00;;;;;;2253501;61;2021;-85
2021/03/13 09:27:00;150748.00;0.50;261.10;13548.00;0.05;24.10;;;;;12.00;1.00;;;;;;2250734;61;1106;-85
2021/03/13 09:29:29;0.00;0.00;0.62;0.00;0.00;0.62;;;;;12.30;1.00;;;;;;2250452;61;1223;-85
2021/03/13 09:32:01;0.00;0.00;0.62;0.00;0.00;0.62;;;;;12.80;1.00;;;;;;2252693;61;1010;-85
2021/03/13 09:34:33;153941.00;0.51;266.60;19979.00;0.07;35.23;;;;;12.70;1.00;;;;;;2252126;61;1173;-85
2021/03/13 09:37:08;24024.00;0.08;42.24;0.00;0.00;0.62;;;;;12.80;1.00;;;;;;2254443;61;1172;-85
2021/03/13 09:39:35;43056.00;0.14;75.18;0.00;0.00;0.62;;;;;12.60;1.00;;;;;;2254920;61;1247;-85
2021/03/13 09:42:04;0.00;0.00;0.62;0.00;0.00;0.62;;;;;12.30;1.00;;;;;;2253956;61;1531;-85
2021/03/13 09:44:32;0.00;0.00;0.62;0.00;0.00;0.62;;;;;12.30;1.00;;;;;;2261012;61;1948;-85
2021/03/13 09:46:59;101124.00;0.34;175.51;0.00;0.00;0.62;;;;;12.70;1.00;;;;;;2260616;61;1030;-89
2021/03/13 09:49:26;78808.00;0.26;136.98;10430.00;0.03;18.69;;;;;12.80;1.00;;;;;;2264045;61;1115;-88
2021/03/13 09:51:54;102667.00;0.34;178.18;10898.00;0.04;19.50;;;;;12.40;1.00;;;;;;2264041;61;943;-88
2021/03/13 09:54:20;115961.00;0.39;201.11;0.00;0.00;0.62;;;;;12.70;1.00;;;;;;2267565;60;1440;-89
2021/03/13 09:56:48;104162.00;0.35;180.76;0.00;0.00;0.62;;;;;12.80;1.00;;;;;;2277611;60;1018;-87
2021/03/13 09:59:18;0.00;0.00;0.62;0.00;0.00;0.62;;;;;12.70;1.00;;;;;;2280949;60;1004;-87
2021/03/13 10:01:44;0.00;0.00;0.62;0.00;0.00;0.62;;;;;13.00;1.00;;;;;;2284494;60;1000;-87
2021/03/13 10:04:11;27443.00;0.09;48.16;0.00;0.00;0.62;;;;;13.00;1.00;;;;;;2284479;60;1915;-88
2021/03/13 10:06:40;60531.00;0.20;105.39;0.00;0.00;0.62;;;;;12.80;1.00;;;;;;2277367;60;1036;-87
2021/03/13 10:09:09;145695.00;0.49;252.39;78864.00;0.26;137.07;;;;;13.10;1.00;;;;;;2284543;60;970;-88
2021/03/13 10:11:41;63930.00;0.21;111.27;0.00;0.00;0.62;;;;;13.20;1.00;;;;;;2273997;60;1056;-88
2021/03/13 10:14:18;23738.00;0.08;41.74;0.00;0.00;0.62;;;;;13.30;1.00;;;;;;2280594;60;1366;-88
2021/03/13 10:16:45;255248.00;0.85;440.98;50717.00;0.17;88.43;;;;;13.10;1.00;;;;;;2284470;60;1033;-88
2021/03/13 10:19:35;0.00;0.00;0.62;0.00;0.00;0.62;;;;;13.20;1.00;;;;;;2284419;60;976;-87
2021/03/13 10:22:10;0.00;0.00;0.62;0.00;0.00;0.62;;;;;13.10;1.00;;;;;;2275669;61;1403;-88
2021/03/13 10:24:51;0.00;0.00;0.62;0.00;0.00;0.62;;;;;12.90;1.00;;;;;;2272357;61;2019;-88
2021/03/13 10:27:25;96928.00;0.32;168.27;27420.00;0.09;48.12;;;;;13.10;1.00;;;;;;2272365;61;1018;-88
2021/03/13 10:29:55;0.00;0.00;0.62;0.00;0.00;0.62;;;;;13.00;1.00;;;;;;2275770;61;1049;-89
2021/03/13 10:32:29;8758.00;0.03;15.80;0.00;0.00;0.62;;;;;13.00;1.00;;;;;;2263423;61;1307;-87
2021/03/13 10:35:13;35225.00;0.12;61.63;0.00;0.00;0.62;;;;;13.50;1.00;;;;;;2263537;61;1035;-89
2021/03/13 10:37:41;167740.00;0.56;290.37;82683.00;0.28;143.67;;;;;13.30;1.00;;;;;;2255541;61;938;-87
2021/03/13 10:40:10;187336.00;0.62;324.12;78585.00;0.26;136.59;;;;;12.90;1.00;;;;;;2257779;61;953;-88
2021/03/13 10:42:37;0.00;0.00;0.62;0.00;0.00;0.62;;;;;12.70;1.00;;;;;;2247556;61;1923;-88
2021/03/13 10:45:18;22712.00;0.08;39.97;0.00;0.00;0.62;;;;;13.10;1.00;;;;;;2237841;61;1014;-89
2021/03/13 10:47:46;224675.00;0.75;388.39;87089.00;0.29;151.28;;;;;12.90;1.00;;;;;;2235761;62;957;-89
2021/03/13 10:50:13;0.00;0.00;0.62;0.00;0.00;0.62;;;;;12.90;1.00;;;;;;2231141;61;1003;-87
2021/03/13 10:52:41;0.00;0.00;0.62;0.00;0.00;0.62;;;;;13.00;1.00;;;;;;2239411;61;1402;-86
2021/03/13 10:55:08;0.00;0.00;0.62;0.00;0.00;0.62;;;;;12.80;1.00;;;;;;2241634;61;1022;-87
2021/03/13 10:57:36;181443.00;0.60;313.97;38487.00;0.13;67.27;;;;;12.90;1.00;;;;;;2247535;61;1029;-87
2021/03/13 11:00:07;0.00;0.00;0.62;0.00;0.00;0.62;;;;;13.00;1.00;;;;;;2250470;61;1024;-88
2021/03/13 11:02:34;0.00;0.00;0.62;0.00;0.00;0.62;;;;;13.20;1.00;;;;;;2259442;61;1340;-86
2021/03/13 11:05:01;77469.00;0.26;134.67;10021.00;0.03;17.99;;;;;13.30;1.00;;;;;;2256588;61;2007;-88
2021/03/13 11:07:32;15376.00;0.05;27.26;0.00;0.00;0.62;;;;;13.20;1.00;;;;;;2272166;61;990;-87
2021/03/13 11:09:59;5330.00;0.02;9.86;0.00;0.00;0.62;;;;;13.20;1.00;;;;;;2270633;61;946;-87
2021/03/13 11:12:25;0.00;0.00;0.62;0.00;0.00;0.62;;;;;12.80;1.00;;;;;;2273029;61;1432;-85
2021/03/13 11:14:54;0.00;0.00;0.62;0.00;0.00;0.62;;;;;12.80;1.00;;;;;;2279483;61;955;-85
2021/03/13 11:17:23;158561.00;0.53;274.56;0.00;0.00;0.62;;;;;13.10;1.00;;;;;;2284276;60;1037;-86
2021/03/13 11:19:51;0.00;0.00;0.62;0.00;0.00;0.62;;;;;13.00;1.00;;;;;;2284246;60;981;-86
2021/03/13 11:22:18;27471.00;0.09;48.21;0.00;0.00;0.62;;;;;13.20;1.00;;;;;;2284171;60;1452;-86
2021/03/13 11:24:44;0.00;0.00;0.62;0.00;0.00;0.62;;;;;13.50;1.00;;;;;;2284200;60;1928;-86
2021/03/13 11:27:10;0.00;0.00;0.62;0.00;0.00;0.62;;;;;13.00;1.00;;;;;;2273720;60;1025;-85
2021/03/13 11:29:37;123001.00;0.41;213.26;0.00;0.00;0.62;;;;;13.00;1.00;;;;;;2276952;60;984;-86
2021/03/13 11:32:04;19645.00;0.07;34.66;0.00;0.00;0.62;;;;;13.30;1.00;;;;;;2276890;60;1385;-87
2021/03/13 11:34:32;0.00;0.00;0.62;0.00;0.00;0.62;;;;;13.00;1.00;;;;;;2273703;60;1005;-86
2021/03/13 11:37:02;0.00;0.00;0.62;0.00;0.00;0.62;;;;;12.90;1.00;;;;;;2273746;60;1015;-88
2021/03/13 11:39:28;18931.00;0.06;33.42;0.00;0.00;0.62;;;;;13.00;1.00;;;;;;2271435;61;1015;-87
2021/03/13 11:41:55;0.00;0.00;0.62;0.00;0.00;0.62;;;;;12.90;1.00;;;;;;2259405;61;1105;-87
2021/03/13 11:44:21;216888.00;0.72;374.99;0.00;0.00;0.62;;;;;13.00;1.00;;;;;;2259406;61;2074;-87
2021/03/13 11:46:48;39847.00;0.13;69.62;0.00;0.00;0.62;;;;;13.20;1.00;;;;;;2249558;61;1022;-88
2021/03/13 11:49:14;152119.00;0.51;263.46;0.00;0.00;0.62;;;;;13.20;1.00;;;;;;2259411;61;1428;-89
2021/03/13 11:51:41;10470.00;0.03;18.76;0.00;0.00;0.62;;;;;13.50;1.00;;;;;;2259509;61;1032;-87
2021/03/13 11:54:09;24009.00;0.08;42.21;0.00;0.00;0.62;;;;;13.60;1.00;;;;;;2259358;61;1456;-88
2021/03/13 11:56:35;1031.00;0.00;2.41;0.00;0.00;0.62;;;;;13.50;1.00;;;;;;2252622;61;1094;-87
2021/03/13 11:59:01;0.00;0.00;0.62;0.00;0.00;0.62;;;;;13.30;1.00;;;;;;2263791;61;1067;-86
2021/03/13 12:01:28;0.00;0.00;0.62;0.00;0.00;0.62;;;;;13.40;1.00;;;;;;2271375;61;931;-88
2021/03/13 12:03:54;34051.00;0.11;59.59;0.00;0.00;0.62;;;;;13.40;1.00;;;;;;2271518;61;1922;-87
2021/03/13 12:06:21;0.00;0.00;0.62;0.00;0.00;0.62;;;;;13.40;1.00;;;;;;2268182;61;973;-88
2021/03/13 12:08:47;0.00;0.00;0.62;0.00;0.00;0.62;;;;;13.60;1.00;;;;;;2260127;61;930;-86
2021/03/13 12:11:15;0.00;0.00;0.62;0.00;0.00;0.62;;;;;13.30;1.00;;;;;;2260166;61;949;-86
2021/03/13 12:13:41;0.00;0.00;0.62;0.00;0.00;0.62;;;;;13.40;1.00;;;;;;2260919;61;1372;-88
2021/03/13 12:16:08;71079.00;0.24;123.62;0.00;0.00;0.62;;;;;13.60;1.00;;;;;;2264785;61;1036;-87
2021/03/13 12:18:34;0.00;0.00;0.62;0.00;0.00;0.62;;;;;13.80;1.00;;;;;;2268126;61;1133;-87
2021/03/13 12:21:01;461793.00;1.54;796.07;141988.00;0.47;246.00;;;;;13.60;1.00;;;;;;2264816;61;1021;-86
2021/03/13 12:23:27;0.00;0.00;0.62;0.00;0.00;0.62;;;;;13.70;1.00;;;;;;2268981;61;1984;-87
2021/03/13 12:25:55;38235.00;0.13;66.83;0.00;0.00;0.62;;;;;13.70;1.00;;;;;;2270456;60;1022;-88
2021/03/13 12:28:23;99670.00;0.33;173.00;0.00;0.00;0.62;;;;;13.10;1.00;;;;;;2284956;60;1035;-87
2021/03/13 12:30:50;0.00;0.00;0.62;0.00;0.00;0.62;;;;;13.10;1.00;;;;;;2272158;61;939;-88
2021/03/13 12:33:16;123577.00;0.41;214.25;0.00;0.00;0.62;;;;;13.20;1.00;;;;;;2268796;61;1349;-87